Time,TemperatureF,DewpointF,PressureIn,WindDirection,WindDirectionDegrees,WindSpeedMPH,WindSpeedGustMPH,Humidity,HourlyPrecipIn,Conditions,Clouds,dailyrainin,SoftwareType,DateUTC
2013-02-19 00:03:00,6.8,3.5,29.79,WNW,288,4.0,9.0,86,0.00,,,0.00,Wunderground v.1.15,2013-02-19 06:03:00,
2013-02-19 00:08:00,6.7,3.4,29.79,NW,316,10.0,11.0,86,0.00,,,0.00,Wunderground v.1.15,2013-02-19 06:08:00,
2013-02-19 00:13:00,6.6,3.3,29.80,West,274,8.0,8.0,86,0.00,,,0.00,Wunderground v.1.15,2013-02-19 06:13:00,
2013-02-19 00:18:00,6.6,3.0,29.80,West,270,9.0,9.0,85,0.00,,,0.00,Wunderground v.1.15,2013-02-19 06:18:00,
2013-02-19 00:24:00,6.6,3.0,29.80,WNW,290,3.0,7.0,85,0.00,,,0.00,Wunderground v.1.15,2013-02-19 06:24:00,
2013-02-19 00:29:00,6.5,3.0,29.80,NNW,338,6.0,10.0,85,0.00,,,0.00,Wunderground v.1.15,2013-02-19 06:29:00,
2013-02-19 00:34:00,6.5,3.0,29.81,WNW,288,5.0,11.0,85,0.00,,,0.00,Wunderground v.1.15,2013-02-19 06:34:00,
2013-02-19 00:39:00,6.4,2.9,29.81,WNW,297,11.0,11.0,85,0.00,,,0.00,Wunderground v.1.15,2013-02-19 06:39:00,
2013-02-19 00:44:00,6.3,2.8,29.81,West,271,9.0,9.0,85,0.00,,,0.00,Wunderground v.1.15,2013-02-19 06:44:00,
2013-02-19 00:50:00,6.1,2.6,29.81,NNW,329,6.0,12.0,85,0.00,,,0.00,Wunderground v.1.15,2013-02-19 06:50:00,
2013-02-19 00:55:00,6.1,2.6,29.81,WNW,292,5.0,10.0,85,0.00,,,0.00,Wunderground v.1.15,2013-02-19 06:55:00,
2013-02-19 01:01:00,6.0,2.5,29.82,SW,236,4.0,7.0,85,0.00,,,0.00,Wunderground v.1.15,2013-02-19 07:01:00,
2013-02-19 01:07:00,5.9,2.4,29.82,WSW,238,11.0,12.0,85,0.00,,,0.00,Wunderground v.1.15,2013-02-19 07:07:00,
2013-02-19 01:12:00,5.8,2.3,29.82,NW,304,7.0,7.0,85,0.00,,,0.00,Wunderground v.1.15,2013-02-19 07:12:00,
2013-02-19 01:17:00,5.8,2.3,29.82,WNW,287,6.0,14.0,85,0.00,,,0.00,Wunderground v.1.15,2013-02-19 07:17:00,
2013-02-19 01:23:00,5.7,2.4,29.83,WNW,299,6.0,10.0,86,0.00,,,0.00,Wunderground v.1.15,2013-02-19 07:23:00,
2013-02-19 01:28:00,5.7,2.4,29.83,West,266,10.0,10.0,86,0.00,,,0.00,Wunderground v.1.15,2013-02-19 07:28:00,
2013-02-19 01:33:00,5.6,2.3,29.83,West,277,9.0,10.0,86,0.00,,,0.00,Wunderground v.1.15,2013-02-19 07:33:00,
2013-02-19 01:39:00,5.7,2.2,29.84,NNW,343,13.0,13.0,85,0.00,,,0.00,Wunderground v.1.15,2013-02-19 07:39:00,
2013-02-19 01:44:00,5.7,2.2,29.84,WNW,299,7.0,8.0,85,0.00,,,0.00,Wunderground v.1.15,2013-02-19 07:44:00,
2013-02-19 01:49:00,5.7,2.2,29.84,WNW,292,7.0,10.0,85,0.00,,,0.00,Wunderground v.1.15,2013-02-19 07:49:00,
2013-02-19 01:54:00,5.7,2.2,29.85,West,270,9.0,12.0,85,0.00,,,0.00,Wunderground v.1.15,2013-02-19 07:54:00,
2013-02-19 01:59:00,5.7,2.2,29.85,WSW,242,11.0,12.0,85,0.00,,,0.00,Wunderground v.1.15,2013-02-19 07:59:00,
2013-02-19 02:04:00,5.7,2.2,29.85,West,260,2.0,9.0,85,0.00,,,0.00,Wunderground v.1.15,2013-02-19 08:04:00,
2013-02-19 02:09:00,5.7,2.2,29.85,NNW,335,5.0,14.0,85,0.00,,,0.00,Wunderground v.1.15,2013-02-19 08:09:00,
2013-02-19 02:14:00,5.6,2.1,29.85,NW,311,7.0,12.0,85,0.00,,,0.00,Wunderground v.1.15,2013-02-19 08:14:00,
2013-02-19 02:19:00,5.6,2.1,29.85,WNW,284,5.0,15.0,85,0.00,,,0.00,Wunderground v.1.15,2013-02-19 08:19:00,
2013-02-19 02:24:00,5.6,2.1,29.85,West,271,7.0,14.0,85,0.00,,,0.00,Wunderground v.1.15,2013-02-19 08:24:00,
2013-02-19 02:29:00,5.5,2.0,29.86,West,281,6.0,14.0,85,0.00,,,0.00,Wunderground v.1.15,2013-02-19 08:29:00,
2013-02-19 02:34:00,5.5,2.0,29.86,WSW,256,6.0,14.0,85,0.00,,,0.00,Wunderground v.1.15,2013-02-19 08:34:00,
2013-02-19 02:39:00,5.6,1.8,29.86,West,260,7.0,15.0,84,0.00,,,0.00,Wunderground v.1.15,2013-02-19 08:39:00,
2013-02-19 02:44:00,5.6,1.8,29.86,West,270,6.0,15.0,84,0.00,,,0.00,Wunderground v.1.15,2013-02-19 08:44:00,
2013-02-19 02:49:00,5.6,1.8,29.86,WNW,301,8.0,15.0,84,0.00,,,0.00,Wunderground v.1.15,2013-02-19 08:49:00,
2013-02-19 02:54:00,5.6,1.8,29.86,West,281,15.0,15.0,84,0.00,,,0.00,Wunderground v.1.15,2013-02-19 08:54:00,
2013-02-19 02:59:00,5.5,1.7,29.86,West,271,9.0,16.0,84,0.00,,,0.00,Wunderground v.1.15,2013-02-19 08:59:00,
2013-02-19 03:04:00,5.5,1.5,29.87,WNW,294,5.0,17.0,83,0.00,,,0.00,Wunderground v.1.15,2013-02-19 09:04:00,
2013-02-19 03:09:00,5.4,1.4,29.87,WNW,289,4.0,17.0,83,0.00,,,0.00,Wunderground v.1.15,2013-02-19 09:09:00,
2013-02-19 03:14:00,5.3,1.3,29.87,West,276,9.0,16.0,83,0.00,,,0.00,Wunderground v.1.15,2013-02-19 09:14:00,
2013-02-19 03:19:00,5.2,1.2,29.87,WNW,283,12.0,16.0,83,0.00,,,0.00,Wunderground v.1.15,2013-02-19 09:19:00,
2013-02-19 03:24:00,5.1,1.1,29.88,West,273,11.0,17.0,83,0.00,,,0.00,Wunderground v.1.15,2013-02-19 09:24:00,
2013-02-19 03:29:00,5.0,1.0,29.88,NW,314,6.0,17.0,83,0.00,,,0.00,Wunderground v.1.15,2013-02-19 09:29:00,
2013-02-19 03:35:00,4.9,1.1,29.88,NW,308,10.0,16.0,84,0.00,,,0.00,Wunderground v.1.15,2013-02-19 09:35:00,
2013-02-19 03:40:00,4.7,0.7,29.89,WNW,302,7.0,19.0,83,0.00,,,0.00,Wunderground v.1.15,2013-02-19 09:40:00,
2013-02-19 03:45:00,4.7,0.7,29.88,WNW,294,10.0,14.0,83,0.00,,,0.00,Wunderground v.1.15,2013-02-19 09:45:00,
2013-02-19 03:50:00,4.6,0.6,29.89,West,277,19.0,19.0,83,0.00,,,0.00,Wunderground v.1.15,2013-02-19 09:50:00,
2013-02-19 03:55:00,4.6,0.6,29.89,West,271,6.0,16.0,83,0.00,,,0.00,Wunderground v.1.15,2013-02-19 09:55:00,
2013-02-19 04:00:00,4.5,0.5,29.89,West,274,7.0,16.0,83,0.00,,,0.00,Wunderground v.1.15,2013-02-19 10:00:00,
2013-02-19 04:05:00,4.4,0.6,29.89,NW,311,6.0,13.0,84,0.00,,,0.00,Wunderground v.1.15,2013-02-19 10:05:00,
2013-02-19 04:10:00,4.3,0.3,29.90,WNW,293,10.0,10.0,83,0.00,,,0.00,Wunderground v.1.15,2013-02-19 10:10:00,
2013-02-19 04:15:00,4.3,0.5,29.90,West,281,10.0,15.0,84,0.00,,,0.00,Wunderground v.1.15,2013-02-19 10:15:00,
2013-02-19 04:20:00,4.1,0.3,29.91,NW,307,5.0,8.0,84,0.00,,,0.00,Wunderground v.1.15,2013-02-19 10:20:00,
2013-02-19 04:25:00,4.0,0.2,29.91,West,281,10.0,15.0,84,0.00,,,0.00,Wunderground v.1.15,2013-02-19 10:25:00,
2013-02-19 04:30:00,3.9,0.1,29.91,WNW,288,9.0,9.0,84,0.00,,,0.00,Wunderground v.1.15,2013-02-19 10:30:00,
2013-02-19 04:35:00,3.8,0.0,29.91,WNW,285,8.0,15.0,84,0.00,,,0.00,Wunderground v.1.15,2013-02-19 10:35:00,
2013-02-19 04:40:00,3.8,0.0,29.91,NW,318,4.0,7.0,84,0.00,,,0.00,Wunderground v.1.15,2013-02-19 10:40:00,
2013-02-19 04:45:00,3.7,-0.1,29.92,NW,308,6.0,13.0,84,0.00,,,0.00,Wunderground v.1.15,2013-02-19 10:45:00,
2013-02-19 04:50:00,3.7,-0.1,29.92,WSW,257,13.0,14.0,84,0.00,,,0.00,Wunderground v.1.15,2013-02-19 10:50:00,
2013-02-19 04:55:00,3.6,-0.2,29.92,West,276,9.0,14.0,84,0.00,,,0.00,Wunderground v.1.15,2013-02-19 10:55:00,
2013-02-19 05:00:00,3.6,-0.2,29.92,West,270,12.0,13.0,84,0.00,,,0.00,Wunderground v.1.15,2013-02-19 11:00:00,
2013-02-19 05:05:00,3.7,-0.1,29.93,WNW,297,9.0,13.0,84,0.00,,,0.00,Wunderground v.1.15,2013-02-19 11:05:00,
2013-02-19 05:10:00,3.7,-0.1,29.93,NW,306,3.0,10.0,84,0.00,,,0.00,Wunderground v.1.15,2013-02-19 11:10:00,
2013-02-19 05:15:00,3.8,0.0,29.93,NW,319,11.0,13.0,84,0.00,,,0.00,Wunderground v.1.15,2013-02-19 11:15:00,
2013-02-19 05:20:00,3.9,0.1,29.94,WNW,287,10.0,11.0,84,0.00,,,0.00,Wunderground v.1.15,2013-02-19 11:20:00,
2013-02-19 05:25:00,3.9,0.1,29.94,WSW,255,12.0,14.0,84,0.00,,,0.00,Wunderground v.1.15,2013-02-19 11:25:00,
2013-02-19 05:30:00,4.0,0.2,29.94,West,276,6.0,8.0,84,0.00,,,0.00,Wunderground v.1.15,2013-02-19 11:30:00,
2013-02-19 05:35:00,4.0,0.0,29.95,North,5,4.0,14.0,83,0.00,,,0.00,Wunderground v.1.15,2013-02-19 11:35:00,
2013-02-19 05:40:00,4.1,0.1,29.95,NNW,337,7.0,10.0,83,0.00,,,0.00,Wunderground v.1.15,2013-02-19 11:40:00,
2013-02-19 05:45:00,4.1,0.1,29.95,WNW,297,9.0,17.0,83,0.00,,,0.00,Wunderground v.1.15,2013-02-19 11:45:00,
2013-02-19 05:50:00,4.1,0.1,29.95,NW,316,5.0,12.0,83,0.00,,,0.00,Wunderground v.1.15,2013-02-19 11:50:00,
2013-02-19 05:55:00,4.1,0.1,29.96,West,281,8.0,18.0,83,0.00,,,0.00,Wunderground v.1.15,2013-02-19 11:55:00,
2013-02-19 06:01:00,4.1,0.1,29.96,WNW,297,5.0,11.0,83,0.00,,,0.00,Wunderground v.1.15,2013-02-19 12:01:00,
2013-02-19 06:06:00,4.1,0.1,29.96,West,271,11.0,13.0,83,0.00,,,0.00,Wunderground v.1.15,2013-02-19 12:06:00,
2013-02-19 06:11:00,4.1,0.1,29.97,WSW,256,3.0,7.0,83,0.00,,,0.00,Wunderground v.1.15,2013-02-19 12:11:00,
2013-02-19 06:16:00,4.0,-0.3,29.97,NW,315,6.0,16.0,82,0.00,,,0.00,Wunderground v.1.15,2013-02-19 12:16:00,
2013-02-19 06:21:00,4.0,-0.3,29.97,WNW,297,13.0,13.0,82,0.00,,,0.00,Wunderground v.1.15,2013-02-19 12:21:00,
2013-02-19 06:26:00,4.0,-0.3,29.97,West,276,10.0,16.0,82,0.00,,,0.00,Wunderground v.1.15,2013-02-19 12:26:00,
2013-02-19 06:31:00,4.0,-0.3,29.97,WNW,302,7.0,12.0,82,0.00,,,0.00,Wunderground v.1.15,2013-02-19 12:31:00,
2013-02-19 06:36:00,4.1,-0.2,29.97,West,273,12.0,14.0,82,0.00,,,0.00,Wunderground v.1.15,2013-02-19 12:36:00,
2013-02-19 06:42:00,4.1,-0.2,29.98,WNW,294,4.0,13.0,82,0.00,,,0.00,Wunderground v.1.15,2013-02-19 12:42:00,
2013-02-19 06:47:00,4.1,-0.2,29.98,West,263,8.0,16.0,82,0.00,,,0.00,Wunderground v.1.15,2013-02-19 12:47:00,
2013-02-19 06:52:00,4.1,-0.4,29.98,NW,313,12.0,14.0,81,0.00,,,0.00,Wunderground v.1.15,2013-02-19 12:52:00,
2013-02-19 06:57:00,4.1,-0.4,29.99,West,278,6.0,17.0,81,0.00,,,0.00,Wunderground v.1.15,2013-02-19 12:57:00,
2013-02-19 07:02:00,4.1,-0.4,29.99,WNW,292,12.0,17.0,81,0.00,,,0.00,Wunderground v.1.15,2013-02-19 13:02:00,
2013-02-19 07:07:00,4.1,-0.4,29.99,WNW,284,5.0,17.0,81,0.00,,,0.00,Wunderground v.1.15,2013-02-19 13:07:00,
2013-02-19 07:12:00,4.1,-0.4,29.99,NW,304,4.0,11.0,81,0.00,,,0.00,Wunderground v.1.15,2013-02-19 13:12:00,
2013-02-19 07:17:00,4.1,-0.4,30.00,North,356,10.0,14.0,81,0.00,,,0.00,Wunderground v.1.15,2013-02-19 13:17:00,
2013-02-19 07:22:00,4.1,-0.4,30.00,WNW,298,9.0,14.0,81,0.00,,,0.00,Wunderground v.1.15,2013-02-19 13:22:00,
2013-02-19 07:27:00,4.1,-0.7,30.00,West,270,5.0,24.0,80,0.00,,,0.00,Wunderground v.1.15,2013-02-19 13:27:00,
2013-02-19 07:32:00,4.1,-0.7,30.01,West,259,10.0,16.0,80,0.00,,,0.00,Wunderground v.1.15,2013-02-19 13:32:00,
2013-02-19 07:37:00,4.1,-0.7,30.01,SW,214,14.0,16.0,80,0.00,,,0.00,Wunderground v.1.15,2013-02-19 13:37:00,
2013-02-19 07:42:00,4.2,-0.6,30.01,WNW,297,8.0,13.0,80,0.00,,,0.00,Wunderground v.1.15,2013-02-19 13:42:00,
2013-02-19 07:47:00,4.1,-0.7,30.02,NW,319,5.0,16.0,80,0.00,,,0.00,Wunderground v.1.15,2013-02-19 13:47:00,
2013-02-19 07:52:00,4.2,-0.9,30.02,West,280,5.0,14.0,79,0.00,,,0.00,Wunderground v.1.15,2013-02-19 13:52:00,
2013-02-19 07:57:00,4.2,-0.9,30.02,NNW,344,10.0,16.0,79,0.00,,,0.00,Wunderground v.1.15,2013-02-19 13:57:00,
2013-02-19 08:02:00,4.1,-1.0,30.02,WNW,295,13.0,15.0,79,0.00,,,0.00,Wunderground v.1.15,2013-02-19 14:02:00,
2013-02-19 08:07:00,4.1,-1.0,30.02,WSW,256,13.0,21.0,79,0.00,,,0.00,Wunderground v.1.15,2013-02-19 14:07:00,
2013-02-19 08:12:00,4.0,-1.1,30.03,NW,323,4.0,14.0,79,0.00,,,0.00,Wunderground v.1.15,2013-02-19 14:12:00,
2013-02-19 08:17:00,3.5,-1.3,30.03,West,281,5.0,16.0,80,0.00,,,0.00,Wunderground v.1.15,2013-02-19 14:17:00,
2013-02-19 08:22:00,3.2,-1.3,30.04,NW,311,8.0,11.0,81,0.00,,,0.00,Wunderground v.1.15,2013-02-19 14:22:00,
2013-02-19 08:27:00,2.9,-1.3,30.04,WSW,257,8.0,16.0,82,0.00,,,0.00,Wunderground v.1.15,2013-02-19 14:27:00,
2013-02-19 08:32:00,2.8,-1.4,30.04,WNW,285,9.0,10.0,82,0.00,,,0.00,Wunderground v.1.15,2013-02-19 14:32:00,
2013-02-19 08:37:00,2.7,-1.5,30.05,WNW,302,5.0,13.0,82,0.00,,,0.00,Wunderground v.1.15,2013-02-19 14:37:00,
2013-02-19 08:42:00,2.8,-1.4,30.05,West,272,4.0,11.0,82,0.00,,,0.00,Wunderground v.1.15,2013-02-19 14:42:00,
2013-02-19 08:47:00,2.9,-1.6,30.05,WNW,297,6.0,12.0,81,0.00,,,0.00,Wunderground v.1.15,2013-02-19 14:47:00,
2013-02-19 08:52:00,2.9,-1.6,30.05,West,276,6.0,11.0,81,0.00,,,0.00,Wunderground v.1.15,2013-02-19 14:52:00,
2013-02-19 08:57:00,2.8,-2.0,30.05,NNW,342,7.0,16.0,80,0.00,,,0.00,Wunderground v.1.15,2013-02-19 14:57:00,
2013-02-19 09:02:00,2.7,-2.3,30.06,WNW,295,9.0,10.0,79,0.00,,,0.00,Wunderground v.1.15,2013-02-19 15:02:00,
2013-02-19 09:07:00,2.9,-2.1,30.06,WNW,302,8.0,14.0,79,0.00,,,0.00,Wunderground v.1.15,2013-02-19 15:07:00,
2013-02-19 09:12:00,3.0,-2.0,30.06,WNW,289,5.0,12.0,79,0.00,,,0.00,Wunderground v.1.15,2013-02-19 15:12:00,
2013-02-19 09:17:00,3.2,-2.1,30.07,WNW,297,5.0,15.0,78,0.00,,,0.00,Wunderground v.1.15,2013-02-19 15:17:00,
2013-02-19 09:22:00,3.1,-2.5,30.07,WNW,297,7.0,14.0,77,0.00,,,0.00,Wunderground v.1.15,2013-02-19 15:22:00,
2013-02-19 09:27:00,3.2,-2.1,30.07,WNW,287,7.0,14.0,78,0.00,,,0.00,Wunderground v.1.15,2013-02-19 15:27:00,
2013-02-19 09:32:00,3.3,-2.3,30.07,WNW,288,9.0,16.0,77,0.00,,,0.00,Wunderground v.1.15,2013-02-19 15:32:00,
2013-02-19 09:37:00,3.5,-2.1,30.07,North,358,8.0,16.0,77,0.00,,,0.00,Wunderground v.1.15,2013-02-19 15:37:00,
2013-02-19 09:42:00,3.4,-2.5,30.07,WNW,297,10.0,18.0,76,0.00,,,0.00,Wunderground v.1.15,2013-02-19 15:42:00,
2013-02-19 09:47:00,3.2,-2.7,30.07,NW,311,6.0,18.0,76,0.00,,,0.00,Wunderground v.1.15,2013-02-19 15:47:00,
2013-02-19 09:52:00,3.5,-2.4,30.07,WNW,295,7.0,16.0,76,0.00,,,0.00,Wunderground v.1.15,2013-02-19 15:52:00,
2013-02-19 09:57:00,3.4,-2.5,30.08,NW,305,13.0,17.0,76,0.00,,,0.00,Wunderground v.1.15,2013-02-19 15:57:00,
2013-02-19 10:02:00,3.3,-2.8,30.08,WSW,252,10.0,12.0,75,0.00,,,0.00,Wunderground v.1.15,2013-02-19 16:02:00,
2013-02-19 10:07:00,3.3,-2.6,30.08,WNW,301,10.0,19.0,76,0.00,,,0.00,Wunderground v.1.15,2013-02-19 16:07:00,
2013-02-19 10:12:00,3.5,-2.4,30.09,WNW,290,16.0,18.0,76,0.00,,,0.00,Wunderground v.1.15,2013-02-19 16:12:00,
2013-02-19 10:17:00,3.5,-2.7,30.09,NW,313,13.0,18.0,75,0.00,,,0.00,Wunderground v.1.15,2013-02-19 16:17:00,
2013-02-19 10:22:00,3.8,-2.1,30.09,NW,307,6.0,10.0,76,0.00,,,0.00,Wunderground v.1.15,2013-02-19 16:22:00,
2013-02-19 10:27:00,3.8,-2.4,30.09,NNW,333,12.0,21.0,75,0.00,,,0.00,Wunderground v.1.15,2013-02-19 16:27:00,
2013-02-19 10:32:00,3.9,-2.5,30.09,NW,326,9.0,18.0,74,0.00,,,0.00,Wunderground v.1.15,2013-02-19 16:32:00,
2013-02-19 10:37:00,4.0,-2.4,30.09,West,278,7.0,18.0,74,0.00,,,0.00,Wunderground v.1.15,2013-02-19 16:37:00,
2013-02-19 10:42:00,4.2,-2.3,30.10,NNW,333,10.0,14.0,74,0.00,,,0.00,Wunderground v.1.15,2013-02-19 16:42:00,
2013-02-19 10:47:00,4.3,-2.2,30.10,WNW,302,11.0,15.0,74,0.00,,,0.00,Wunderground v.1.15,2013-02-19 16:47:00,
2013-02-19 10:52:00,4.3,-2.4,30.10,West,276,15.0,20.0,73,0.00,,,0.00,Wunderground v.1.15,2013-02-19 16:52:00,
2013-02-19 10:57:00,4.1,-2.4,30.10,WNW,293,5.0,23.0,74,0.00,,,0.00,Wunderground v.1.15,2013-02-19 16:57:00,
2013-02-19 11:02:00,4.3,-2.2,30.10,NNW,332,9.0,12.0,74,0.00,,,0.00,Wunderground v.1.15,2013-02-19 17:02:00,
2013-02-19 11:07:00,4.6,-1.9,30.10,WNW,297,7.0,17.0,74,0.00,,,0.00,Wunderground v.1.15,2013-02-19 17:07:00,
2013-02-19 11:12:00,4.6,-1.9,30.11,West,272,10.0,15.0,74,0.00,,,0.00,Wunderground v.1.15,2013-02-19 17:12:00,
2013-02-19 11:17:00,4.5,-2.3,30.11,NNW,329,8.0,23.0,73,0.00,,,0.00,Wunderground v.1.15,2013-02-19 17:17:00,
2013-02-19 11:22:00,4.7,-2.1,30.11,NW,304,6.0,11.0,73,0.00,,,0.00,Wunderground v.1.15,2013-02-19 17:22:00,
2013-02-19 11:27:00,5.0,-1.8,30.11,NNW,330,10.0,18.0,73,0.00,,,0.00,Wunderground v.1.15,2013-02-19 17:27:00,
2013-02-19 11:32:00,5.2,-1.6,30.12,NW,319,11.0,16.0,73,0.00,,,0.00,Wunderground v.1.15,2013-02-19 17:32:00,
2013-02-19 11:37:00,5.0,-2.1,30.12,NW,309,6.0,16.0,72,0.00,,,0.00,Wunderground v.1.15,2013-02-19 17:37:00,
2013-02-19 11:42:00,4.8,-2.0,30.12,WNW,299,11.0,16.0,73,0.00,,,0.00,Wunderground v.1.15,2013-02-19 17:42:00,
2013-02-19 11:47:00,4.8,-2.0,30.12,NW,305,7.0,16.0,73,0.00,,,0.00,Wunderground v.1.15,2013-02-19 17:47:00,
2013-02-19 11:52:00,4.7,-2.3,30.13,WNW,289,10.0,18.0,72,0.00,,,0.00,Wunderground v.1.15,2013-02-19 17:52:00,
2013-02-19 11:57:00,4.5,-2.5,30.13,WNW,283,8.0,18.0,72,0.00,,,0.00,Wunderground v.1.15,2013-02-19 17:57:00,
2013-02-19 12:02:00,4.4,-2.6,30.13,West,271,11.0,16.0,72,0.00,,,0.00,Wunderground v.1.15,2013-02-19 18:02:00,
2013-02-19 12:07:00,4.4,-2.6,30.13,West,278,8.0,16.0,72,0.00,,,0.00,Wunderground v.1.15,2013-02-19 18:07:00,
2013-02-19 12:12:00,4.7,-2.1,30.14,NW,314,6.0,16.0,73,0.00,,,0.00,Wunderground v.1.15,2013-02-19 18:12:00,
2013-02-19 12:17:00,4.8,-2.3,30.14,NNW,329,14.0,16.0,72,0.00,,,0.00,Wunderground v.1.15,2013-02-19 18:17:00,
2013-02-19 12:22:00,4.6,-2.4,30.14,WNW,293,7.0,15.0,72,0.00,,,0.00,Wunderground v.1.15,2013-02-19 18:22:00,
2013-02-19 12:27:00,4.7,-2.3,30.14,WSW,254,8.0,19.0,72,0.00,,,0.00,Wunderground v.1.15,2013-02-19 18:27:00,
2013-02-19 12:32:00,4.8,-2.0,30.15,NW,322,7.0,11.0,73,0.00,,,0.00,Wunderground v.1.15,2013-02-19 18:32:00,
2013-02-19 12:37:00,4.7,-2.6,30.15,WNW,287,6.0,21.0,71,0.00,,,0.00,Wunderground v.1.15,2013-02-19 18:37:00,
2013-02-19 12:42:00,4.7,-2.3,30.15,West,262,8.0,11.0,72,0.00,,,0.00,Wunderground v.1.15,2013-02-19 18:42:00,
2013-02-19 12:47:00,5.0,-2.1,30.15,West,263,11.0,17.0,72,0.00,,,0.00,Wunderground v.1.15,2013-02-19 18:47:00,
2013-02-19 12:52:00,5.1,-2.3,30.15,NNW,342,4.0,14.0,71,0.00,,,0.00,Wunderground v.1.15,2013-02-19 18:52:00,
2013-02-19 12:57:00,5.4,-1.7,30.15,WNW,299,3.0,17.0,72,0.00,,,0.00,Wunderground v.1.15,2013-02-19 18:57:00,
2013-02-19 13:02:00,5.7,-1.7,30.15,NW,319,9.0,14.0,71,0.00,,,0.00,Wunderground v.1.15,2013-02-19 19:02:00,
2013-02-19 13:07:00,5.2,-2.2,30.16,West,274,5.0,19.0,71,0.00,,,0.00,Wunderground v.1.15,2013-02-19 19:07:00,
2013-02-19 13:12:00,5.3,-1.8,30.16,West,271,4.0,13.0,72,0.00,,,0.00,Wunderground v.1.15,2013-02-19 19:12:00,
2013-02-19 13:17:00,5.5,-1.9,30.16,NW,316,6.0,14.0,71,0.00,,,0.00,Wunderground v.1.15,2013-02-19 19:17:00,
2013-02-19 13:22:00,5.4,-2.0,30.16,West,281,9.0,15.0,71,0.00,,,0.00,Wunderground v.1.15,2013-02-19 19:22:00,
2013-02-19 13:27:00,5.3,-2.1,30.16,WNW,285,4.0,15.0,71,0.00,,,0.00,Wunderground v.1.15,2013-02-19 19:27:00,
2013-02-19 13:32:00,5.4,-2.0,30.16,NW,326,4.0,15.0,71,0.00,,,0.00,Wunderground v.1.15,2013-02-19 19:32:00,
2013-02-19 13:37:00,5.4,-2.0,30.16,WNW,301,7.0,19.0,71,0.00,,,0.00,Wunderground v.1.15,2013-02-19 19:37:00,
2013-02-19 13:42:00,5.4,-2.3,30.17,WNW,290,8.0,18.0,70,0.00,,,0.00,Wunderground v.1.15,2013-02-19 19:42:00,
2013-02-19 13:47:00,5.2,-2.2,30.17,West,265,12.0,18.0,71,0.00,,,0.00,Wunderground v.1.15,2013-02-19 19:47:00,
2013-02-19 13:52:00,5.3,-2.4,30.17,West,281,12.0,16.0,70,0.00,,,0.00,Wunderground v.1.15,2013-02-19 19:52:00,
2013-02-19 13:57:00,5.3,-2.4,30.17,West,275,6.0,18.0,70,0.00,,,0.00,Wunderground v.1.15,2013-02-19 19:57:00,
2013-02-19 14:02:00,5.3,-2.7,30.17,NNW,333,11.0,17.0,69,0.00,,,0.00,Wunderground v.1.15,2013-02-19 20:02:00,
2013-02-19 14:07:00,5.2,-2.5,30.17,WNW,301,5.0,21.0,70,0.00,,,0.00,Wunderground v.1.15,2013-02-19 20:07:00,
2013-02-19 14:13:00,5.4,-2.3,30.18,West,274,17.0,17.0,70,0.00,,,0.00,Wunderground v.1.15,2013-02-19 20:13:00,
2013-02-19 14:18:00,5.3,-2.4,30.18,West,273,7.0,20.0,70,0.00,,,0.00,Wunderground v.1.15,2013-02-19 20:18:00,
2013-02-19 14:23:00,5.5,-2.2,30.17,West,266,9.0,13.0,70,0.00,,,0.00,Wunderground v.1.15,2013-02-19 20:23:00,
2013-02-19 14:28:00,5.6,-2.1,30.18,NW,309,6.0,18.0,70,0.00,,,0.00,Wunderground v.1.15,2013-02-19 20:28:00,
2013-02-19 14:33:00,5.6,-2.1,30.18,West,281,10.0,16.0,70,0.00,,,0.00,Wunderground v.1.15,2013-02-19 20:33:00,
2013-02-19 14:38:00,5.5,-2.2,30.18,WNW,290,6.0,17.0,70,0.00,,,0.00,Wunderground v.1.15,2013-02-19 20:38:00,
2013-02-19 14:43:00,5.5,-2.2,30.18,WNW,300,13.0,19.0,70,0.00,,,0.00,Wunderground v.1.15,2013-02-19 20:43:00,
2013-02-19 14:48:00,5.4,-2.3,30.19,WNW,293,10.0,19.0,70,0.00,,,0.00,Wunderground v.1.15,2013-02-19 20:48:00,
2013-02-19 14:53:00,5.4,-2.6,30.19,WNW,290,6.0,18.0,69,0.00,,,0.00,Wunderground v.1.15,2013-02-19 20:53:00,
2013-02-19 14:58:00,5.4,-2.6,30.19,WNW,298,11.0,19.0,69,0.00,,,0.00,Wunderground v.1.15,2013-02-19 20:58:00,
2013-02-19 15:03:00,5.4,-2.3,30.20,WNW,294,10.0,11.0,70,0.00,,,0.00,Wunderground v.1.15,2013-02-19 21:03:00,
2013-02-19 15:08:00,5.5,-2.2,30.20,WNW,283,12.0,14.0,70,0.00,,,0.00,Wunderground v.1.15,2013-02-19 21:08:00,
2013-02-19 15:13:00,5.5,-2.5,30.20,NW,307,3.0,12.0,69,0.00,,,0.00,Wunderground v.1.15,2013-02-19 21:13:00,
2013-02-19 15:18:00,5.6,-2.4,30.21,WSW,255,11.0,17.0,69,0.00,,,0.00,Wunderground v.1.15,2013-02-19 21:18:00,
2013-02-19 15:23:00,5.6,-2.4,30.21,NNW,343,5.0,15.0,69,0.00,,,0.00,Wunderground v.1.15,2013-02-19 21:23:00,
2013-02-19 15:28:00,5.6,-2.4,30.22,NW,304,8.0,15.0,69,0.00,,,0.00,Wunderground v.1.15,2013-02-19 21:28:00,
2013-02-19 15:33:00,5.5,-2.8,30.21,West,269,6.0,20.0,68,0.00,,,0.00,Wunderground v.1.15,2013-02-19 21:33:00,
2013-02-19 15:38:00,5.5,-2.5,30.22,NW,311,16.0,20.0,69,0.00,,,0.00,Wunderground v.1.15,2013-02-19 21:38:00,
2013-02-19 15:43:00,5.3,-3.0,30.22,West,274,8.0,14.0,68,0.00,,,0.00,Wunderground v.1.15,2013-02-19 21:43:00,
2013-02-19 15:48:00,5.4,-2.6,30.23,NNW,335,10.0,15.0,69,0.00,,,0.00,Wunderground v.1.15,2013-02-19 21:48:00,
2013-02-19 15:53:00,5.5,-2.8,30.23,West,273,6.0,14.0,68,0.00,,,0.00,Wunderground v.1.15,2013-02-19 21:53:00,
2013-02-19 15:58:00,5.6,-2.7,30.23,WNW,293,6.0,16.0,68,0.00,,,0.00,Wunderground v.1.15,2013-02-19 21:58:00,
2013-02-19 16:03:00,5.6,-2.7,30.24,West,271,5.0,16.0,68,0.00,,,0.00,Wunderground v.1.15,2013-02-19 22:03:00,
2013-02-19 16:08:00,5.2,-3.1,30.24,WNW,288,5.0,16.0,68,0.00,,,0.00,Wunderground v.1.15,2013-02-19 22:08:00,
2013-02-19 16:13:00,5.2,-2.8,30.24,NW,304,7.0,13.0,69,0.00,,,0.00,Wunderground v.1.15,2013-02-19 22:13:00,
2013-02-19 16:18:00,5.2,-2.8,30.24,West,265,3.0,16.0,69,0.00,,,0.00,Wunderground v.1.15,2013-02-19 22:18:00,
2013-02-19 16:23:00,5.3,-2.7,30.24,NW,319,6.0,12.0,69,0.00,,,0.00,Wunderground v.1.15,2013-02-19 22:23:00,
2013-02-19 16:28:00,5.0,-3.3,30.24,NW,323,13.0,15.0,68,0.00,,,0.00,Wunderground v.1.15,2013-02-19 22:28:00,
2013-02-19 16:33:00,4.9,-3.4,30.24,WNW,301,3.0,12.0,68,0.00,,,0.00,Wunderground v.1.15,2013-02-19 22:33:00,
2013-02-19 16:38:00,5.0,-3.0,30.25,West,269,6.0,16.0,69,0.00,,,0.00,Wunderground v.1.15,2013-02-19 22:38:00,
2013-02-19 16:43:00,4.7,-3.6,30.25,West,281,12.0,13.0,68,0.00,,,0.00,Wunderground v.1.15,2013-02-19 22:43:00,
2013-02-19 16:48:00,4.4,-3.8,30.25,WNW,289,7.0,13.0,68,0.00,,,0.00,Wunderground v.1.15,2013-02-19 22:48:00,
2013-02-19 16:53:00,4.3,-3.6,30.25,NNW,345,7.0,15.0,69,0.00,,,0.00,Wunderground v.1.15,2013-02-19 22:53:00,
2013-02-19 16:58:00,4.3,-3.6,30.25,West,259,8.0,15.0,69,0.00,,,0.00,Wunderground v.1.15,2013-02-19 22:58:00,
2013-02-19 17:03:00,4.1,-3.8,30.25,NW,307,6.0,13.0,69,0.00,,,0.00,Wunderground v.1.15,2013-02-19 23:03:00,
2013-02-19 17:08:00,4.0,-3.9,30.25,WNW,290,8.0,19.0,69,0.00,,,0.00,Wunderground v.1.15,2013-02-19 23:08:00,
2013-02-19 17:13:00,3.9,-4.0,30.26,NW,324,9.0,10.0,69,0.00,,,0.00,Wunderground v.1.15,2013-02-19 23:13:00,
2013-02-19 17:18:00,3.7,-3.9,30.26,NW,319,7.0,13.0,70,0.00,,,0.00,Wunderground v.1.15,2013-02-19 23:18:00,
2013-02-19 17:23:00,3.5,-4.1,30.26,NW,316,3.0,10.0,70,0.00,,,0.00,Wunderground v.1.15,2013-02-19 23:23:00,
2013-02-19 17:28:00,3.2,-4.1,30.26,SW,233,8.0,10.0,71,0.00,,,0.00,Wunderground v.1.15,2013-02-19 23:28:00,
2013-02-19 17:33:00,2.9,-4.4,30.26,West,280,6.0,8.0,71,0.00,,,0.00,Wunderground v.1.15,2013-02-19 23:33:00,
2013-02-19 17:38:00,2.8,-4.5,30.27,WNW,300,8.0,14.0,71,0.00,,,0.00,Wunderground v.1.15,2013-02-19 23:38:00,
2013-02-19 17:43:00,2.7,-4.6,30.27,WNW,292,5.0,7.0,71,0.00,,,0.00,Wunderground v.1.15,2013-02-19 23:43:00,
2013-02-19 17:48:00,2.6,-4.4,30.27,West,273,4.0,12.0,72,0.00,,,0.00,Wunderground v.1.15,2013-02-19 23:48:00,
2013-02-19 17:53:00,2.4,-4.6,30.27,West,264,8.0,9.0,72,0.00,,,0.00,Wunderground v.1.15,2013-02-19 23:53:00,
2013-02-19 17:58:00,2.2,-4.8,30.27,West,274,8.0,11.0,72,0.00,,,0.00,Wunderground v.1.15,2013-02-19 23:58:00,
2013-02-19 18:03:00,2.2,-4.8,30.28,SW,236,8.0,8.0,72,0.00,,,0.00,Wunderground v.1.15,2013-02-20 00:03:00,
2013-02-19 18:08:00,2.1,-4.9,30.28,West,270,3.0,14.0,72,0.00,,,0.00,Wunderground v.1.15,2013-02-20 00:08:00,
2013-02-19 18:13:00,2.0,-5.0,30.28,WSW,245,9.0,9.0,72,0.00,,,0.00,Wunderground v.1.15,2013-02-20 00:13:00,
2013-02-19 18:18:00,1.9,-5.1,30.28,WNW,295,4.0,9.0,72,0.00,,,0.00,Wunderground v.1.15,2013-02-20 00:18:00,
2013-02-19 18:23:00,1.8,-5.2,30.29,NW,304,11.0,13.0,72,0.00,,,0.00,Wunderground v.1.15,2013-02-20 00:23:00,
2013-02-19 18:28:00,1.8,-5.2,30.29,NW,304,3.0,13.0,72,0.00,,,0.00,Wunderground v.1.15,2013-02-20 00:28:00,
2013-02-19 18:33:00,1.8,-5.2,30.29,West,281,4.0,10.0,72,0.00,,,0.00,Wunderground v.1.15,2013-02-20 00:33:00,
2013-02-19 18:38:00,1.7,-5.2,30.29,WNW,287,7.0,10.0,72,0.00,,,0.00,Wunderground v.1.15,2013-02-20 00:38:00,
2013-02-19 18:43:00,1.7,-5.2,30.29,West,273,3.0,9.0,72,0.00,,,0.00,Wunderground v.1.15,2013-02-20 00:43:00,
2013-02-19 18:48:00,1.7,-5.2,30.30,WNW,293,7.0,10.0,72,0.00,,,0.00,Wunderground v.1.15,2013-02-20 00:48:00,
2013-02-19 18:53:00,1.6,-5.3,30.30,WNW,295,9.0,11.0,72,0.00,,,0.00,Wunderground v.1.15,2013-02-20 00:53:00,
2013-02-19 18:58:00,1.5,-5.4,30.31,NW,326,6.0,14.0,72,0.00,,,0.00,Wunderground v.1.15,2013-02-20 00:58:00,
2013-02-19 19:04:00,1.4,-5.5,30.31,WNW,288,5.0,9.0,72,0.00,,,0.00,Wunderground v.1.15,2013-02-20 01:04:00,
2013-02-19 19:09:00,1.3,-5.3,30.31,WNW,284,6.0,10.0,73,0.00,,,0.00,Wunderground v.1.15,2013-02-20 01:09:00,
2013-02-19 19:14:00,1.3,-5.3,30.31,WSW,250,6.0,11.0,73,0.00,,,0.00,Wunderground v.1.15,2013-02-20 01:14:00,
2013-02-19 19:19:00,1.2,-5.4,30.31,West,262,4.0,11.0,73,0.00,,,0.00,Wunderground v.1.15,2013-02-20 01:19:00,
2013-02-19 19:24:00,1.1,-5.5,30.31,NW,308,6.0,9.0,73,0.00,,,0.00,Wunderground v.1.15,2013-02-20 01:24:00,
2013-02-19 19:29:00,1.1,-5.5,30.32,NNW,333,8.0,14.0,73,0.00,,,0.00,Wunderground v.1.15,2013-02-20 01:29:00,
2013-02-19 19:34:00,1.1,-5.5,30.32,NW,306,5.0,12.0,73,0.00,,,0.00,Wunderground v.1.15,2013-02-20 01:34:00,
2013-02-19 19:39:00,1.2,-5.4,30.32,NW,311,8.0,17.0,73,0.00,,,0.00,Wunderground v.1.15,2013-02-20 01:39:00,
2013-02-19 19:44:00,1.1,-5.5,30.32,West,269,7.0,8.0,73,0.00,,,0.00,Wunderground v.1.15,2013-02-20 01:44:00,
2013-02-19 19:49:00,1.1,-5.5,30.33,WNW,291,6.0,12.0,73,0.00,,,0.00,Wunderground v.1.15,2013-02-20 01:49:00,
2013-02-19 19:54:00,1.1,-5.5,30.33,NW,309,6.0,8.0,73,0.00,,,0.00,Wunderground v.1.15,2013-02-20 01:54:00,
2013-02-19 19:59:00,1.1,-5.5,30.33,NW,308,6.0,11.0,73,0.00,,,0.00,Wunderground v.1.15,2013-02-20 01:59:00,
2013-02-19 20:04:00,1.0,-5.6,30.33,West,281,3.0,10.0,73,0.00,,,0.00,Wunderground v.1.15,2013-02-20 02:04:00,
2013-02-19 20:09:00,1.0,-5.6,30.33,NW,307,3.0,12.0,73,0.00,,,0.00,Wunderground v.1.15,2013-02-20 02:09:00,
2013-02-19 20:14:00,1.0,-5.6,30.33,WNW,285,5.0,9.0,73,0.00,,,0.00,Wunderground v.1.15,2013-02-20 02:14:00,
2013-02-19 20:19:00,1.0,-5.6,30.34,NNW,340,4.0,10.0,73,0.00,,,0.00,Wunderground v.1.15,2013-02-20 02:19:00,
2013-02-19 20:24:00,1.0,-5.6,30.34,West,274,6.0,12.0,73,0.00,,,0.00,Wunderground v.1.15,2013-02-20 02:24:00,
2013-02-19 20:29:00,1.1,-5.5,30.34,NW,326,8.0,12.0,73,0.00,,,0.00,Wunderground v.1.15,2013-02-20 02:29:00,
2013-02-19 20:34:00,1.1,-5.5,30.34,NNW,331,7.0,11.0,73,0.00,,,0.00,Wunderground v.1.15,2013-02-20 02:34:00,
2013-02-19 20:39:00,1.2,-5.4,30.35,WNW,294,3.0,16.0,73,0.00,,,0.00,Wunderground v.1.15,2013-02-20 02:39:00,
2013-02-19 20:44:00,1.1,-5.5,30.35,West,273,4.0,9.0,73,0.00,,,0.00,Wunderground v.1.15,2013-02-20 02:44:00,
2013-02-19 20:49:00,1.1,-5.5,30.35,NNW,330,5.0,9.0,73,0.00,,,0.00,Wunderground v.1.15,2013-02-20 02:49:00,
2013-02-19 20:54:00,1.0,-5.6,30.35,NNW,332,3.0,9.0,73,0.00,,,0.00,Wunderground v.1.15,2013-02-20 02:54:00,
2013-02-19 20:59:00,0.9,-5.7,30.35,NW,312,3.0,9.0,73,0.00,,,0.00,Wunderground v.1.15,2013-02-20 02:59:00,
2013-02-19 21:04:00,0.8,-5.8,30.36,NW,306,3.0,9.0,73,0.00,,,0.00,Wunderground v.1.15,2013-02-20 03:04:00,
2013-02-19 21:09:00,0.8,-5.8,30.36,NW,312,3.0,10.0,73,0.00,,,0.00,Wunderground v.1.15,2013-02-20 03:09:00,
2013-02-19 21:14:00,0.8,-5.8,30.36,NW,323,2.0,7.0,73,0.00,,,0.00,Wunderground v.1.15,2013-02-20 03:14:00,
2013-02-19 21:19:00,0.8,-5.8,30.37,WNW,300,4.0,8.0,73,0.00,,,0.00,Wunderground v.1.15,2013-02-20 03:19:00,
2013-02-19 21:24:00,0.8,-5.8,30.37,WNW,291,2.0,6.0,73,0.00,,,0.00,Wunderground v.1.15,2013-02-20 03:24:00,
2013-02-19 21:29:00,0.8,-5.8,30.37,NNW,330,3.0,8.0,73,0.00,,,0.00,Wunderground v.1.15,2013-02-20 03:29:00,
2013-02-19 21:34:00,0.8,-5.8,30.37,NW,314,2.0,7.0,73,0.00,,,0.00,Wunderground v.1.15,2013-02-20 03:34:00,
2013-02-19 21:39:00,0.8,-5.8,30.38,WNW,284,2.0,8.0,73,0.00,,,0.00,Wunderground v.1.15,2013-02-20 03:39:00,
2013-02-19 21:44:00,0.7,-5.9,30.38,SW,235,2.0,5.0,73,0.00,,,0.00,Wunderground v.1.15,2013-02-20 03:44:00,
2013-02-19 21:49:00,0.4,-5.9,30.38,WNW,289,4.0,9.0,74,0.00,,,0.00,Wunderground v.1.15,2013-02-20 03:49:00,
2013-02-19 21:54:00,0.4,-5.9,30.38,West,266,3.0,10.0,74,0.00,,,0.00,Wunderground v.1.15,2013-02-20 03:54:00,
2013-02-19 21:59:00,0.3,-6.0,30.38,WNW,287,6.0,10.0,74,0.00,,,0.00,Wunderground v.1.15,2013-02-20 03:59:00,
2013-02-19 22:04:00,0.3,-6.0,30.38,West,274,4.0,7.0,74,0.00,,,0.00,Wunderground v.1.15,2013-02-20 04:04:00,
2013-02-19 22:09:00,0.2,-6.1,30.38,WNW,300,6.0,7.0,74,0.00,,,0.00,Wunderground v.1.15,2013-02-20 04:09:00,
2013-02-19 22:14:00,0.2,-6.1,30.38,WNW,295,1.0,6.0,74,0.00,,,0.00,Wunderground v.1.15,2013-02-20 04:14:00,
2013-02-19 22:19:00,0.2,-6.1,30.38,WNW,291,3.0,6.0,74,0.00,,,0.00,Wunderground v.1.15,2013-02-20 04:19:00,
2013-02-19 22:24:00,0.1,-6.2,30.38,West,280,2.0,6.0,74,0.00,,,0.00,Wunderground v.1.15,2013-02-20 04:24:00,
2013-02-19 22:29:00,0.0,-6.3,30.38,WNW,290,2.0,6.0,74,0.00,,,0.00,Wunderground v.1.15,2013-02-20 04:29:00,
2013-02-19 22:34:00,0.0,-6.0,30.39,West,280,3.0,7.0,75,0.00,,,0.00,Wunderground v.1.15,2013-02-20 04:34:00,
2013-02-19 22:39:00,0.0,-6.0,30.39,NW,308,4.0,7.0,75,0.00,,,0.00,Wunderground v.1.15,2013-02-20 04:39:00,
2013-02-19 22:44:00,-0.1,-6.1,30.39,WNW,285,3.0,6.0,75,0.00,,,0.00,Wunderground v.1.15,2013-02-20 04:44:00,
2013-02-19 22:49:00,-0.1,-6.1,30.39,WSW,257,5.0,6.0,75,0.00,,,0.00,Wunderground v.1.15,2013-02-20 04:49:00,
2013-02-19 22:54:00,-0.1,-6.1,30.39,West,263,3.0,8.0,75,0.00,,,0.00,Wunderground v.1.15,2013-02-20 04:54:00,
2013-02-19 22:59:00,-0.1,-6.1,30.39,NNW,328,4.0,8.0,75,0.00,,,0.00,Wunderground v.1.15,2013-02-20 04:59:00,
2013-02-19 23:00:00,-0.1,-6.1,30.39,WNW,293,5.0,8.0,75,0.00,,,0.00,Wunderground v.1.15,2013-02-20 05:00:00,
2013-02-19 23:05:00,-0.1,-6.1,30.40,WNW,297,3.0,7.0,75,0.00,,,0.00,Wunderground v.1.15,2013-02-20 05:05:00,
2013-02-19 23:10:00,-0.1,-6.1,30.40,SW,236,3.0,4.0,75,0.00,,,0.00,Wunderground v.1.15,2013-02-20 05:10:00,
2013-02-19 23:15:00,-0.1,-6.1,30.40,WNW,284,4.0,6.0,75,0.00,,,0.00,Wunderground v.1.15,2013-02-20 05:15:00,
2013-02-19 23:20:00,-0.1,-6.1,30.40,West,271,2.0,4.0,75,0.00,,,0.00,Wunderground v.1.15,2013-02-20 05:20:00,
2013-02-19 23:25:00,-0.1,-6.1,30.40,WNW,288,4.0,11.0,75,0.00,,,0.00,Wunderground v.1.15,2013-02-20 05:25:00,
2013-02-19 23:30:00,-0.2,-6.2,30.40,WNW,288,3.0,3.0,75,0.00,,,0.00,Wunderground v.1.15,2013-02-20 05:30:00,
2013-02-19 23:35:00,-0.4,-6.4,30.41,WNW,297,3.0,5.0,75,0.00,,,0.00,Wunderground v.1.15,2013-02-20 05:35:00,
2013-02-19 23:40:00,-0.5,-6.5,30.41,WSW,256,2.0,3.0,75,0.00,,,0.00,Wunderground v.1.15,2013-02-20 05:40:00,
2013-02-19 23:45:00,-0.5,-6.5,30.41,WNW,287,4.0,5.0,75,0.00,,,0.00,Wunderground v.1.15,2013-02-20 05:45:00,
2013-02-19 23:50:00,-0.6,-6.6,30.41,West,281,4.0,4.0,75,0.00,,,0.00,Wunderground v.1.15,2013-02-20 05:50:00,
2013-02-19 23:55:00,-0.7,-6.7,30.41,WNW,288,5.0,6.0,75,0.00,,,0.00,Wunderground v.1.15,2013-02-20 05:55:00,